This is the latest recevied weather packets stored in our database for station/object KO5S. If no packets are shown the sender has not sent any weather packets the latest 10 day(s).
| Time | Temp. | Humidity | Pressure | Rain* | Wind** | Luminosity | Snow |
|---|---|---|---|---|---|---|---|
| 1777451295 | 22.22° C | 91% | 1010.7 hPa | 0 mm | - | - | - |
| 1777448895 | 22.22° C | 92% | 1010.5 hPa | 0 mm | - | - | - |
| 1777448315 | 22.22° C | 92% | 1010.9 hPa | 0 mm | - | - | - |
| 1777442895 | 23.33° C | 91% | 1011.6 hPa | 0 mm | - | - | - |
| 1777440495 | 23.33° C | 91% | 1012.1 hPa | 0 mm | - | - | - |
| 1777438697 | 23.33° C | 90% | 1012.3 hPa | 0 mm | - | - | - |
| 1777438096 | 23.33° C | 90% | 1012.2 hPa | 0 mm | - | - | - |
| 1777435696 | 23.33° C | 90% | 1011.8 hPa | 0 mm | - | - | - |
| 1777430896 | 23.89° C | 90% | 1012 hPa | 0 mm | - | - | - |
| 1777427896 | 23.33° C | 89% | 1012.2 hPa | 0 mm | - | - | - |
| 1777426096 | 23.89° C | 89% | 1012.5 hPa | 0 mm | - | - | - |
| 1777422496 | 24.44° C | 86% | 1011.9 hPa | 0 mm | - | - | - |
| 1777421896 | 24.44° C | 85% | 1011.8 hPa | 0 mm | - | - | - |
| 1777419496 | 25° C | 83% | 1012.3 hPa | 0 mm | - | - | - |
| 1777418916 | 25.56° C | 82% | 1011.9 hPa | 0 mm | - | - | - |
| 1777415296 | 26.11° C | 79% | 1011.2 hPa | 0 mm | - | - | - |
| 1777413496 | 26.67° C | 78% | 1011.4 hPa | 0 mm | - | - | - |
| 1777412896 | 26.11° C | 80% | 1011.4 hPa | 0 mm | - | - | - |
| 1777407496 | 27.78° C | 75% | 1012.7 hPa | 0 mm | - | - | - |
| 1777406896 | 27.78° C | 75% | 1012.7 hPa | 0 mm | - | - | - |
| 1777405096 | 28.33° C | 74% | 1012.9 hPa | 0 mm | - | - | - |
| 1777403896 | 28.33° C | 75% | 1013 hPa | 0 mm | - | - | - |
| 1777403296 | 28.89° C | 73% | 1013.1 hPa | 0 mm | - | - | - |
| 1777402096 | 28.89° C | 71% | 1013.1 hPa | 0 mm | - | - | - |
| 1777393096 | 27.78° C | 77% | 1014.6 hPa | 0 mm | - | - | - |
* Rain latest hour (hover to see other rain measurements)
** Current wind speed in m/s (hover to see current wind gust speed)